Time;durP1;ratioP1;P1;durP2;ratioP2;P2;SDS_P1;SDS_P2;PMS_P1;PMS_P2;Temp;Humidity;BMP_temperature;BMP_pressure;BME280_temperature;BME280_humidity;BME280_pressure;Samples;Min_cycle;Max_cycle;Signal;HPM_P1;HPM_P2
2021/05/12 00:00:42;;;;;;;1.52;1.23;;;21.40;48.10;;;;;;6244138;28;20061;-77
2021/05/12 00:03:42;;;;;;;1.77;1.30;;;21.40;48.10;;;;;;6244409;28;20108;-77
2021/05/12 00:06:43;;;;;;;1.38;1.27;;;21.40;48.10;;;;;;6244073;28;20051;-78
2021/05/12 00:09:43;;;;;;;1.80;1.48;;;21.40;48.10;;;;;;6244221;28;20029;-77
2021/05/12 00:12:44;;;;;;;1.90;1.45;;;21.40;48.20;;;;;;6244124;28;20033;-77
2021/05/12 00:15:45;;;;;;;1.60;1.30;;;21.40;48.20;;;;;;6243932;28;20384;-77
2021/05/12 00:18:47;;;;;;;1.55;1.42;;;21.40;48.20;;;;;;6244331;28;20025;-77
2021/05/12 00:22:12;;;;;;;1.67;1.40;;;21.40;48.20;;;;;;6243353;28;20017;-78
2021/05/12 00:25:14;;;;;;;1.83;1.48;;;21.40;48.20;;;;;;6244260;28;20033;-78
2021/05/12 00:28:14;;;;;;;1.50;1.38;;;21.40;48.20;;;;;;6242588;28;20488;-77
2021/05/12 00:31:15;;;;;;;1.48;1.23;;;21.40;48.20;;;;;;6243676;28;20072;-78
2021/05/12 00:34:16;;;;;;;1.70;1.50;;;21.40;48.30;;;;;;6243367;28;20034;-78
2021/05/12 00:37:17;;;;;;;1.33;1.23;;;21.40;48.20;;;;;;6243183;28;20057;-78
2021/05/12 00:40:18;;;;;;;1.60;1.38;;;21.40;48.20;;;;;;6242879;28;20068;-77
2021/05/12 00:43:19;;;;;;;1.20;1.10;;;21.40;48.30;;;;;;6243340;28;20477;-77
2021/05/12 00:46:19;;;;;;;1.95;1.70;;;21.40;48.30;;;;;;6243592;28;20029;-78
2021/05/12 00:49:22;;;;;;;1.60;1.25;;;21.40;48.30;;;;;;6244179;28;20030;-77
2021/05/12 00:52:24;;;;;;;1.80;1.40;;;21.40;48.30;;;;;;6242078;28;20106;-77
2021/05/12 00:55:24;;;;;;;1.77;1.48;;;21.40;48.40;;;;;;6243647;28;20079;-78
2021/05/12 00:58:25;;;;;;;1.98;1.30;;;21.40;48.30;;;;;;6242160;28;20439;-77
2021/05/12 01:01:25;;;;;;;1.63;1.42;;;21.40;48.40;;;;;;6243086;28;20156;-78
2021/05/12 01:04:27;;;;;;;1.98;1.55;;;21.40;48.40;;;;;;6243412;28;20033;-78
2021/05/12 01:07:27;;;;;;;1.98;1.45;;;21.40;48.30;;;;;;6244055;28;20575;-77
2021/05/12 01:10:28;;;;;;;1.50;1.40;;;21.40;48.40;;;;;;6248276;28;20025;-77
2021/05/12 01:13:28;;;;;;;1.70;1.50;;;21.40;48.40;;;;;;6248314;28;20443;-77
2021/05/12 01:16:29;;;;;;;2.20;1.48;;;21.40;48.40;;;;;;6248603;28;20138;-78
2021/05/12 01:19:30;;;;;;;1.92;1.33;;;21.40;48.40;;;;;;6248173;28;20044;-77
2021/05/12 01:22:30;;;;;;;2.08;1.40;;;21.40;48.50;;;;;;6247856;28;20036;-77
2021/05/12 01:25:31;;;;;;;1.42;1.27;;;21.40;48.40;;;;;;6248306;28;20797;-77
2021/05/12 01:28:34;;;;;;;2.00;1.27;;;21.40;48.50;;;;;;6246716;28;20040;-77
2021/05/12 01:31:40;;;;;;;1.60;1.25;;;21.40;48.50;;;;;;6247995;28;20123;-78
2021/05/12 01:34:41;;;;;;;1.80;1.33;;;21.40;48.50;;;;;;6247801;28;20045;-78
2021/05/12 01:37:41;;;;;;;1.77;1.50;;;21.40;48.50;;;;;;6247832;28;20056;-78
2021/05/12 01:40:43;;;;;;;2.65;1.50;;;21.40;48.50;;;;;;6248081;28;20389;-77
2021/05/12 01:43:44;;;;;;;2.10;1.70;;;21.40;48.50;;;;;;6247307;28;20025;-78
2021/05/12 01:46:46;;;;;;;2.10;1.67;;;21.40;48.50;;;;;;6247973;28;20025;-78
2021/05/12 01:49:49;;;;;;;1.95;1.75;;;21.40;48.60;;;;;;6239921;28;20172;-78
2021/05/12 01:52:49;;;;;;;1.73;1.40;;;21.40;48.60;;;;;;6247405;28;20094;-78
2021/05/12 01:55:51;;;;;;;1.45;1.20;;;21.40;48.60;;;;;;6247564;28;20030;-78
2021/05/12 01:58:51;;;;;;;1.50;1.40;;;21.40;48.60;;;;;;6247047;28;20036;-77
2021/05/12 02:01:52;;;;;;;1.30;1.20;;;21.40;48.60;;;;;;6245870;28;20484;-77
2021/05/12 02:04:52;;;;;;;1.70;1.40;;;21.40;48.60;;;;;;6247149;28;20036;-77
2021/05/12 02:07:58;;;;;;;1.40;1.20;;;21.40;48.60;;;;;;6245549;28;20021;-77
2021/05/12 02:11:02;;;;;;;1.40;1.15;;;21.40;48.70;;;;;;6246916;28;20037;-77
2021/05/12 02:14:03;;;;;;;1.60;1.15;;;21.40;48.70;;;;;;6247561;28;20060;-77
2021/05/12 02:17:04;;;;;;;1.20;1.10;;;21.40;48.70;;;;;;6247064;28;20057;-77
2021/05/12 02:20:07;;;;;;;1.65;1.45;;;21.40;48.70;;;;;;6244268;28;20488;-78
2021/05/12 02:23:11;;;;;;;1.42;1.30;;;21.40;48.70;;;;;;6246790;28;20492;-77
2021/05/12 02:26:12;;;;;;;1.70;1.30;;;21.40;48.70;;;;;;6246672;28;20033;-78
2021/05/12 02:29:12;;;;;;;1.35;1.17;;;21.40;48.70;;;;;;6246636;28;20029;-77
2021/05/12 02:32:13;;;;;;;1.30;1.20;;;21.40;48.70;;;;;;6246253;28;20514;-76
2021/05/12 02:35:15;;;;;;;1.75;1.35;;;21.40;48.70;;;;;;6246048;28;20056;-77
2021/05/12 02:38:16;;;;;;;1.45;1.27;;;21.40;48.70;;;;;;6245309;28;20025;-77
2021/05/12 02:41:16;;;;;;;1.70;1.17;;;21.40;48.70;;;;;;6245824;28;20215;-77
2021/05/12 02:44:17;;;;;;;1.50;1.30;;;21.40;48.70;;;;;;6245839;28;20125;-77
2021/05/12 02:47:18;;;;;;;1.50;1.20;;;21.40;48.70;;;;;;6244727;28;20494;-78
2021/05/12 02:50:18;;;;;;;1.40;1.17;;;21.40;48.70;;;;;;6245465;28;20041;-78
2021/05/12 02:53:20;;;;;;;1.70;1.38;;;21.40;48.80;;;;;;6245632;28;20037;-77
2021/05/12 02:56:21;;;;;;;1.35;1.23;;;21.40;48.80;;;;;;6245872;28;20057;-77
2021/05/12 02:59:21;;;;;;;1.45;1.30;;;21.40;48.70;;;;;;6246181;28;20052;-77
2021/05/12 03:02:22;;;;;;;1.25;1.15;;;21.40;48.80;;;;;;6245624;28;20293;-77
2021/05/12 03:05:23;;;;;;;1.67;1.17;;;21.40;48.80;;;;;;6258760;28;20029;-77
2021/05/12 03:08:23;;;;;;;1.45;1.23;;;21.40;48.80;;;;;;6270661;28;20028;-77
2021/05/12 03:11:24;;;;;;;1.40;1.30;;;21.40;48.80;;;;;;6252273;28;20068;-77
2021/05/12 03:14:24;;;;;;;1.40;1.10;;;21.40;48.80;;;;;;6245851;28;20029;-77
2021/05/12 03:17:26;;;;;;;1.58;1.30;;;21.40;48.80;;;;;;6245527;28;20026;-77
2021/05/12 03:20:28;;;;;;;1.40;1.30;;;21.40;48.80;;;;;;6244781;28;20026;-78
2021/05/12 03:23:28;;;;;;;2.50;1.70;;;21.40;48.80;;;;;;6244719;28;20033;-77
2021/05/12 03:26:30;;;;;;;1.73;1.10;;;21.40;49.50;;;;;;6245181;28;20030;-77
2021/05/12 03:29:30;;;;;;;1.60;1.30;;;21.40;48.80;;;;;;6245179;28;20478;-77
2021/05/12 03:32:31;;;;;;;1.90;1.45;;;21.40;48.90;;;;;;6243396;28;20025;-77
2021/05/12 03:35:31;;;;;;;1.33;1.10;;;21.40;48.90;;;;;;6244260;28;20053;-77
2021/05/12 03:38:33;;;;;;;1.27;1.15;;;21.40;48.90;;;;;;6242610;28;20364;-77
2021/05/12 03:41:34;;;;;;;1.40;1.27;;;21.40;48.90;;;;;;6244528;28;20163;-78
2021/05/12 03:44:34;;;;;;;1.15;1.05;;;21.40;48.90;;;;;;6244746;28;20242;-78
2021/05/12 03:47:35;;;;;;;1.20;1.10;;;21.40;48.90;;;;;;6244554;28;20029;-77
2021/05/12 03:50:35;;;;;;;1.30;1.20;;;21.40;48.90;;;;;;6242858;28;20037;-77
2021/05/12 03:53:36;;;;;;;1.40;1.10;;;21.40;48.90;;;;;;6244502;28;20021;-78
2021/05/12 03:56:36;;;;;;;1.38;1.23;;;21.40;48.90;;;;;;6243899;28;20480;-77
2021/05/12 04:03:34;;;;;;;1.30;1.10;;;21.40;48.90;;;;;;6244660;28;20037;-77
2021/05/12 04:06:36;;;;;;;1.60;1.40;;;21.40;48.90;;;;;;6254666;28;20550;-76
2021/05/12 04:09:36;;;;;;;1.27;1.15;;;21.40;49.00;;;;;;6234991;28;20033;-77
2021/05/12 04:12:37;;;;;;;1.52;1.20;;;21.40;49.00;;;;;;6235585;28;20025;-77
2021/05/12 04:15:38;;;;;;;1.15;1.05;;;21.40;49.00;;;;;;6244099;28;20369;-77
2021/05/12 04:18:38;;;;;;;1.10;1.00;;;21.40;49.00;;;;;;6243922;28;20385;-77
2021/05/12 04:21:39;;;;;;;1.45;1.10;;;21.40;49.00;;;;;;6243228;28;20091;-76
2021/05/12 04:24:40;;;;;;;1.15;0.95;;;21.40;49.00;;;;;;6244045;28;20100;-77
2021/05/12 04:27:40;;;;;;;1.30;1.20;;;21.40;49.00;;;;;;6243276;28;20057;-77
2021/05/12 04:30:41;;;;;;;1.48;1.20;;;21.40;49.00;;;;;;6242603;28;20037;-77
2021/05/12 04:33:41;;;;;;;1.30;1.10;;;21.40;49.00;;;;;;6219844;28;20037;-77
2021/05/12 04:36:42;;;;;;;1.35;1.13;;;21.30;49.00;;;;;;6224089;28;20053;-77
2021/05/12 04:39:43;;;;;;;1.30;1.20;;;21.40;49.00;;;;;;6243281;28;20499;-77
2021/05/12 04:42:44;;;;;;;1.20;1.00;;;21.40;49.00;;;;;;6242769;28;20048;-77
2021/05/12 04:45:45;;;;;;;1.13;1.00;;;21.40;49.00;;;;;;6243557;28;20025;-78
2021/05/12 04:48:45;;;;;;;1.00;0.90;;;21.40;49.10;;;;;;6243660;28;20125;-76
2021/05/12 04:51:46;;;;;;;1.23;1.13;;;21.40;49.00;;;;;;6243130;28;20033;-77
2021/05/12 04:54:46;;;;;;;1.20;1.10;;;21.40;49.10;;;;;;6243089;28;20143;-76
2021/05/12 04:57:47;;;;;;;1.50;1.35;;;21.40;49.10;;;;;;6243071;28;20064;-77
2021/05/12 05:00:48;;;;;;;1.30;1.17;;;21.40;49.10;;;;;;6242360;28;20053;-77
2021/05/12 05:03:49;;;;;;;1.38;1.10;;;21.40;49.10;;;;;;6237408;28;20033;-77
2021/05/12 05:06:50;;;;;;;1.20;1.08;;;21.40;49.10;;;;;;6242910;28;20025;-78
2021/05/12 05:09:50;;;;;;;1.35;1.10;;;21.40;49.10;;;;;;6237765;28;20380;-77
2021/05/12 05:12:51;;;;;;;1.10;1.00;;;21.40;49.10;;;;;;6243595;28;20515;-77
2021/05/12 05:15:52;;;;;;;1.38;0.90;;;21.40;49.10;;;;;;6243547;28;20045;-77
2021/05/12 05:18:52;;;;;;;1.10;1.00;;;21.40;49.10;;;;;;6243834;28;20040;-77
2021/05/12 05:21:53;;;;;;;1.52;1.15;;;21.40;49.10;;;;;;6243500;28;20025;-78
2021/05/12 05:24:55;;;;;;;1.20;1.10;;;21.40;49.10;;;;;;6243597;28;20032;-78
2021/05/12 05:27:55;;;;;;;1.25;0.80;;;21.40;49.10;;;;;;6243440;28;20041;-78
2021/05/12 05:30:56;;;;;;;1.38;0.95;;;21.40;49.10;;;;;;6243075;28;20061;-77
2021/05/12 05:33:56;;;;;;;1.02;0.93;;;21.40;49.20;;;;;;6230797;28;20033;-77
2021/05/12 05:36:57;;;;;;;1.30;1.10;;;21.40;49.20;;;;;;6240849;28;20188;-77
2021/05/12 05:39:57;;;;;;;1.63;1.10;;;21.40;49.20;;;;;;6241424;28;20018;-77
2021/05/12 05:43:02;;;;;;;1.05;0.95;;;21.40;49.20;;;;;;6240846;28;20029;-78
2021/05/12 05:46:02;;;;;;;0.93;0.83;;;21.40;49.20;;;;;;6240974;28;20269;-77
2021/05/12 05:49:03;;;;;;;1.15;1.00;;;21.40;49.20;;;;;;6241902;28;20052;-77
2021/05/12 05:52:04;;;;;;;1.10;0.90;;;21.40;49.20;;;;;;6242191;28;20511;-77
2021/05/12 05:55:05;;;;;;;0.93;0.85;;;21.40;49.20;;;;;;6245187;28;20546;-77
2021/05/12 05:58:06;;;;;;;1.13;0.90;;;21.40;49.20;;;;;;6245887;28;20029;-78
2021/05/12 06:01:06;;;;;;;1.48;1.15;;;21.40;49.20;;;;;;6237681;28;20044;-78
2021/05/12 06:04:07;;;;;;;1.00;0.90;;;21.40;49.20;;;;;;6248646;28;20029;-78
2021/05/12 06:07:08;;;;;;;1.20;1.10;;;21.40;49.20;;;;;;6249172;28;20503;-78
2021/05/12 06:10:09;;;;;;;1.10;1.00;;;21.40;49.20;;;;;;6249188;28;20120;-78
2021/05/12 06:13:11;;;;;;;1.10;0.98;;;21.40;49.20;;;;;;6248531;28;20082;-78
2021/05/12 06:16:12;;;;;;;1.70;1.30;;;21.40;49.60;;;;;;6248687;28;20041;-78
2021/05/12 06:19:13;;;;;;;1.02;0.93;;;21.40;49.20;;;;;;6249319;28;20573;-77
2021/05/12 06:22:15;;;;;;;1.27;1.00;;;21.40;49.20;;;;;;6247359;28;20017;-78
2021/05/12 06:25:15;;;;;;;0.95;0.85;;;21.40;49.20;;;;;;6248976;28;20033;-78
2021/05/12 06:28:16;;;;;;;1.08;0.98;;;21.40;49.20;;;;;;6239878;28;20457;-77
2021/05/12 06:31:17;;;;;;;1.27;1.13;;;21.40;49.20;;;;;;6248271;28;20052;-78
2021/05/12 06:34:17;;;;;;;1.05;0.95;;;21.40;49.20;;;;;;6247734;28;20033;-77
2021/05/12 06:37:18;;;;;;;1.38;1.08;;;21.40;49.20;;;;;;6247958;28;20053;-78
2021/05/12 06:40:19;;;;;;;1.40;1.00;;;21.40;49.30;;;;;;6247745;28;20033;-77
2021/05/12 06:43:19;;;;;;;1.10;1.00;;;21.40;49.20;;;;;;6249649;28;20025;-78
2021/05/12 06:46:20;;;;;;;1.05;0.95;;;21.40;49.20;;;;;;6247170;28;20017;-78
2021/05/12 06:49:20;;;;;;;1.00;0.90;;;21.40;49.20;;;;;;6248984;28;20021;-77
2021/05/12 06:52:21;;;;;;;1.02;0.93;;;21.40;49.20;;;;;;6248032;28;20029;-77
2021/05/12 06:55:23;;;;;;;0.93;0.80;;;21.40;49.20;;;;;;6246817;28;20041;-77
2021/05/12 06:58:24;;;;;;;1.42;1.10;;;21.40;49.30;;;;;;6248676;28;20021;-78
2021/05/12 07:01:24;;;;;;;1.15;1.02;;;21.40;49.20;;;;;;6247835;28;20150;-78
2021/05/12 07:04:25;;;;;;;1.58;1.05;;;21.40;49.30;;;;;;6249421;28;20033;-79
2021/05/12 07:07:25;;;;;;;1.20;1.00;;;21.40;49.20;;;;;;6253708;28;20100;-78
2021/05/12 07:10:26;;;;;;;0.88;0.88;;;21.40;49.30;;;;;;6247831;28;20044;-78
2021/05/12 07:13:26;;;;;;;1.10;0.90;;;21.40;49.30;;;;;;6246366;28;20615;-78
2021/05/12 07:16:27;;;;;;;1.20;1.10;;;21.40;49.30;;;;;;6245888;28;20117;-78
2021/05/12 07:19:27;;;;;;;1.20;1.10;;;21.40;49.40;;;;;;6248524;28;20077;-78
2021/05/12 07:22:28;;;;;;;1.17;1.08;;;21.40;49.40;;;;;;6246118;28;20097;-78
2021/05/12 07:25:29;;;;;;;1.45;1.02;;;21.40;49.30;;;;;;6248098;28;20026;-77
2021/05/12 07:28:29;;;;;;;1.33;1.10;;;21.40;49.40;;;;;;6246588;28;20185;-78
2021/05/12 07:31:30;;;;;;;1.10;1.00;;;21.50;49.40;;;;;;6243716;28;20045;-78
2021/05/12 07:34:30;;;;;;;1.35;0.98;;;21.50;49.30;;;;;;6244978;28;20025;-78
2021/05/12 07:37:31;;;;;;;1.50;1.10;;;21.50;49.40;;;;;;6245840;28;20453;-78
2021/05/12 07:40:34;;;;;;;1.20;0.95;;;21.50;49.40;;;;;;6246239;28;20289;-78
2021/05/12 07:43:34;;;;;;;1.00;0.82;;;21.50;49.40;;;;;;6243065;28;20032;-78
2021/05/12 07:46:35;;;;;;;1.15;0.90;;;21.40;49.30;;;;;;6246436;28;20021;-78
2021/05/12 07:49:37;;;;;;;4.20;1.10;;;21.40;49.20;;;;;;6244601;28;20397;-78
2021/05/12 07:52:38;;;;;;;3.97;1.10;;;21.40;49.50;;;;;;6247250;28;20491;-79
2021/05/12 07:55:39;;;;;;;1.10;1.00;;;21.40;49.40;;;;;;6245960;28;20030;-78
2021/05/12 07:58:40;;;;;;;1.67;1.02;;;21.40;49.30;;;;;;6247562;28;20029;-78
2021/05/12 08:01:43;;;;;;;1.17;1.00;;;21.40;49.40;;;;;;6247080;28;20017;-77
2021/05/12 08:04:44;;;;;;;1.02;0.95;;;21.40;49.50;;;;;;6248096;28;20047;-78
2021/05/12 08:07:45;;;;;;;1.00;0.90;;;21.50;49.50;;;;;;6247903;28;20076;-79
2021/05/12 08:10:45;;;;;;;1.08;0.88;;;21.50;49.70;;;;;;6245902;28;20484;-79
2021/05/12 08:13:46;;;;;;;1.23;1.00;;;21.50;49.50;;;;;;6244780;28;20124;-80
2021/05/12 08:16:47;;;;;;;2.75;1.27;;;21.60;49.50;;;;;;6245335;28;20018;-79
2021/05/12 08:19:47;;;;;;;2.22;0.90;;;21.60;49.60;;;;;;6248061;28;20028;-77
2021/05/12 08:22:48;;;;;;;1.40;1.00;;;21.60;49.50;;;;;;6246144;28;20472;-80
2021/05/12 08:25:49;;;;;;;2.75;1.08;;;21.60;49.60;;;;;;6246214;28;20915;-78
2021/05/12 08:28:50;;;;;;;1.02;0.93;;;21.60;49.50;;;;;;6246511;28;20104;-78
2021/05/12 08:31:51;;;;;;;1.17;0.88;;;21.60;49.60;;;;;;6245002;28;20040;-78
2021/05/12 08:34:56;;;;;;;1.10;0.90;;;21.60;49.60;;;;;;6244984;28;20049;-78
2021/05/12 08:37:57;;;;;;;1.35;1.00;;;21.60;49.60;;;;;;6246700;28;20135;-78
2021/05/12 08:41:00;;;;;;;1.80;0.88;;;21.60;50.30;;;;;;6246381;28;20025;-78
2021/05/12 08:44:05;;;;;;;2.33;0.95;;;21.60;49.60;;;;;;6245764;28;20400;-78
2021/05/12 08:47:09;;;;;;;1.63;0.90;;;21.60;49.60;;;;;;6245418;28;20026;-78
2021/05/12 08:50:10;;;;;;;1.20;1.10;;;21.60;49.60;;;;;;6246458;28;20060;-78
2021/05/12 08:53:11;;;;;;;0.98;0.90;;;21.60;49.60;;;;;;6244519;28;20033;-78
2021/05/12 08:56:12;;;;;;;0.82;0.80;;;21.60;49.60;;;;;;6247186;28;20048;-78
2021/05/12 08:59:14;;;;;;;1.10;1.00;;;21.60;49.60;;;;;;6247036;28;20025;-78
2021/05/12 09:02:15;;;;;;;1.13;1.00;;;21.70;49.60;;;;;;6246032;28;20014;-78
2021/05/12 09:05:16;;;;;;;1.13;1.00;;;21.70;49.60;;;;;;6240070;28;20022;-78
2021/05/12 09:08:16;;;;;;;1.20;1.00;;;21.70;49.60;;;;;;6245075;28;20104;-78
2021/05/12 09:11:17;;;;;;;1.05;0.98;;;21.70;49.60;;;;;;6246026;28;20468;-78
2021/05/12 09:14:29;;;;;;;1.38;1.08;;;21.70;49.60;;;;;;6244600;28;20030;-77
2021/05/12 09:17:39;;;;;;;1.20;1.10;;;21.70;49.50;;;;;;6242326;28;20029;-78
2021/05/12 09:20:40;;;;;;;1.30;1.20;;;21.70;49.50;;;;;;6245491;28;20021;-78
2021/05/12 09:23:42;;;;;;;1.13;1.00;;;21.70;49.50;;;;;;6245329;28;20025;-80
2021/05/12 09:26:45;;;;;;;1.77;0.93;;;21.70;49.50;;;;;;6244067;28;20025;-78
2021/05/12 09:29:58;;;;;;;1.20;0.82;;;21.70;49.50;;;;;;6249803;28;20041;-77
2021/05/12 09:32:59;;;;;;;1.40;1.17;;;21.70;49.50;;;;;;6250761;28;20484;-78
2021/05/12 09:36:00;;;;;;;1.02;0.93;;;21.70;49.50;;;;;;6249378;28;20087;-78
2021/05/12 09:39:00;;;;;;;1.15;1.00;;;21.70;49.50;;;;;;6244144;28;20365;-78
2021/05/12 09:42:16;;;;;;;1.10;1.00;;;21.70;49.50;;;;;;6250878;28;20034;-77
2021/05/12 09:45:21;;;;;;;1.13;1.00;;;21.70;49.50;;;;;;6238390;28;20175;-78
2021/05/12 09:48:22;;;;;;;1.42;1.08;;;21.70;49.50;;;;;;6251032;28;20072;-78
2021/05/12 09:51:23;;;;;;;1.83;1.10;;;21.70;49.60;;;;;;6251188;28;20483;-78
2021/05/12 09:54:28;;;;;;;0.80;0.80;;;21.70;49.60;;;;;;6248322;28;20030;-78
2021/05/12 09:57:28;;;;;;;1.33;1.10;;;21.70;49.70;;;;;;6250090;28;20021;-79
2021/05/12 10:00:34;;;;;;;1.35;0.90;;;21.60;49.70;;;;;;6249609;28;20337;-79
2021/05/12 10:03:35;;;;;;;1.10;1.00;;;21.60;49.60;;;;;;6181400;28;20069;-78
2021/05/12 10:06:35;;;;;;;0.80;0.80;;;21.60;49.60;;;;;;6198867;28;20078;-78
2021/05/12 10:09:36;;;;;;;1.60;1.08;;;21.60;49.60;;;;;;6187648;28;20504;-78
2021/05/12 10:12:36;;;;;;;1.42;0.98;;;21.60;49.60;;;;;;6196931;28;20085;-80
2021/05/12 10:15:37;;;;;;;1.20;0.85;;;21.60;49.70;;;;;;6196981;28;20034;-78
2021/05/12 10:18:38;;;;;;;2.05;1.40;;;21.60;49.70;;;;;;6197828;28;20045;-78
2021/05/12 10:21:38;;;;;;;1.38;1.15;;;21.60;49.70;;;;;;6197628;28;20046;-77
2021/05/12 10:24:41;;;;;;;1.15;1.05;;;21.70;49.70;;;;;;6196186;28;20113;-78
2021/05/12 10:27:43;;;;;;;2.25;1.30;;;21.70;49.70;;;;;;6197109;28;20178;-78
2021/05/12 10:30:47;;;;;;;1.05;0.95;;;21.70;49.70;;;;;;6196993;28;20038;-77
2021/05/12 10:33:51;;;;;;;4.03;1.10;;;21.70;49.70;;;;;;6208715;28;20033;-77
2021/05/12 10:37:22;;;;;;;1.95;1.10;;;21.70;49.70;;;;;;6248173;28;20041;-77
2021/05/12 10:40:25;;;;;;;1.55;1.10;;;21.70;49.70;;;;;;6246900;28;20476;-78
2021/05/12 10:43:38;;;;;;;1.33;1.00;;;21.70;49.70;;;;;;6248172;28;20028;-77
2021/05/12 10:47:02;;;;;;;1.40;1.27;;;21.70;49.70;;;;;;6248424;28;20560;-78
2021/05/12 10:50:04;;;;;;;2.28;1.10;;;21.80;49.70;;;;;;6247169;28;20415;-78
2021/05/12 10:53:17;;;;;;;1.75;1.15;;;21.70;49.60;;;;;;6251049;28;20388;-78
2021/05/12 10:56:23;;;;;;;1.83;1.20;;;21.70;49.60;;;;;;6248877;28;20438;-78
2021/05/12 10:59:25;;;;;;;1.10;1.00;;;21.70;49.60;;;;;;6248595;28;20072;-78
2021/05/12 11:03:04;;;;;;;1.90;1.30;;;21.80;49.80;;;;;;6245442;28;20032;-78
2021/05/12 11:06:04;;;;;;;1.27;1.17;;;21.80;49.70;;;;;;6245384;28;20042;-78
2021/05/12 11:09:17;;;;;;;2.15;1.20;;;21.80;49.80;;;;;;6246882;28;20034;-77
2021/05/12 11:12:21;;;;;;;2.03;1.38;;;21.80;49.70;;;;;;6246984;28;20254;-78
2021/05/12 11:15:21;;;;;;;1.35;1.10;;;21.80;49.70;;;;;;6248278;28;20032;-78
2021/05/12 11:18:34;;;;;;;2.25;1.35;;;21.80;49.80;;;;;;6247159;28;20033;-77
2021/05/12 11:21:37;;;;;;;2.13;1.50;;;21.80;49.80;;;;;;6246506;28;20029;-78
2021/05/12 11:24:54;;;;;;;2.05;1.42;;;21.80;49.80;;;;;;6246890;28;20368;-78
2021/05/12 11:31:26;;;;;;;2.80;1.55;;;21.80;49.80;;;;;;6247595;28;20037;-78
2021/05/12 11:34:28;;;;;;;2.33;1.58;;;21.70;49.70;;;;;;6247276;28;20025;-77
2021/05/12 11:37:31;;;;;;;12.02;3.28;;;21.70;49.80;;;;;;6245738;28;20053;-79
2021/05/12 11:40:31;;;;;;;9.80;3.60;;;21.70;50.20;;;;;;6246979;28;20318;-79
2021/05/12 11:43:33;;;;;;;9.60;3.90;;;21.70;50.10;;;;;;6246734;28;20069;-77
2021/05/12 11:46:37;;;;;;;14.50;7.07;;;21.70;50.60;;;;;;6246859;28;20372;-78
2021/05/12 11:49:39;;;;;;;18.10;7.95;;;21.60;51.10;;;;;;6244751;28;20044;-78
2021/05/12 11:52:40;;;;;;;12.10;5.93;;;21.60;51.30;;;;;;6246767;28;20038;-78
2021/05/12 11:55:40;;;;;;;10.45;5.00;;;21.60;51.30;;;;;;6246021;28;20440;-78
2021/05/12 11:58:59;;;;;;;9.05;4.80;;;21.60;51.20;;;;;;6246524;28;20392;-78
2021/05/12 12:02:07;;;;;;;8.77;4.90;;;21.60;51.10;;;;;;6244102;28;20051;-78
2021/05/12 12:05:09;;;;;;;10.13;6.53;;;21.60;51.20;;;;;;6245745;28;20025;-78
2021/05/12 12:08:22;;;;;;;8.25;5.10;;;21.60;51.60;;;;;;6245204;28;20021;-78
2021/05/12 12:11:22;;;;;;;11.10;5.65;;;21.50;51.50;;;;;;6245362;28;20033;-78
2021/05/12 12:14:33;;;;;;;9.52;6.25;;;21.50;51.60;;;;;;6246019;28;20021;-77
2021/05/12 12:17:33;;;;;;;9.82;6.15;;;21.50;51.80;;;;;;6229605;28;20080;-78
2021/05/12 12:20:35;;;;;;;8.23;4.75;;;21.50;51.90;;;;;;6244586;28;20055;-78
2021/05/12 12:23:38;;;;;;;14.00;6.35;;;21.40;51.70;;;;;;6246345;28;20056;-78
2021/05/12 12:26:42;;;;;;;11.73;5.90;;;21.40;51.90;;;;;;6239093;28;20379;-77
2021/05/12 12:29:48;;;;;;;9.70;6.83;;;21.40;52.00;;;;;;6244381;28;20516;-77
2021/05/12 12:32:48;;;;;;;10.88;6.97;;;21.40;52.10;;;;;;6239521;28;20288;-79
2021/05/12 12:36:12;;;;;;;13.30;7.50;;;21.40;52.10;;;;;;6244523;28;20392;-77
2021/05/12 12:39:13;;;;;;;15.07;6.72;;;21.40;52.10;;;;;;6244179;28;20033;-78
2021/05/12 12:42:17;;;;;;;11.38;6.95;;;21.40;52.30;;;;;;6245850;28;20392;-77
2021/05/12 12:45:29;;;;;;;8.52;6.20;;;21.40;52.40;;;;;;6243920;28;20614;-80
2021/05/12 12:48:29;;;;;;;10.95;6.70;;;21.40;52.30;;;;;;6246189;28;20029;-79
2021/05/12 12:51:40;;;;;;;10.32;6.38;;;21.40;52.00;;;;;;6244492;28;20033;-79
2021/05/12 12:55:04;;;;;;;12.35;5.30;;;21.50;52.00;;;;;;6245561;28;20435;-79
2021/05/12 12:58:05;;;;;;;12.18;5.57;;;21.50;51.80;;;;;;6245650;28;20056;-79
2021/05/12 13:01:06;;;;;;;8.07;5.32;;;21.50;51.70;;;;;;6244642;28;20026;-78
2021/05/12 13:04:17;;;;;;;10.05;4.28;;;21.60;51.60;;;;;;6247351;28;20026;-77
2021/05/12 13:07:19;;;;;;;6.65;4.45;;;21.60;51.40;;;;;;6243898;28;20021;-77
2021/05/12 13:10:31;;;;;;;8.48;3.90;;;21.60;51.20;;;;;;6240146;28;20040;-79
2021/05/12 13:16:47;;;;;;;5.07;3.73;;;21.60;51.20;;;;;;6244091;28;20080;-79
2021/05/12 13:19:51;;;;;;;9.52;4.20;;;21.60;51.10;;;;;;6245149;28;20061;-78
2021/05/12 13:23:06;;;;;;;10.15;3.83;;;21.60;51.10;;;;;;6244844;28;20041;-77
2021/05/12 13:26:08;;;;;;;11.80;4.05;;;21.60;51.10;;;;;;6243885;28;20033;-78
2021/05/12 13:29:16;;;;;;;13.88;3.88;;;21.60;51.10;;;;;;6244040;28;20025;-77
2021/05/12 13:32:17;;;;;;;9.73;3.55;;;21.60;51.10;;;;;;6243791;28;20037;-76
2021/05/12 13:35:17;;;;;;;6.00;3.47;;;21.60;51.10;;;;;;6246152;28;20516;-77
2021/05/12 13:38:19;;;;;;;9.52;3.67;;;21.60;51.00;;;;;;6246093;28;20032;-77
2021/05/12 13:41:20;;;;;;;5.43;3.28;;;21.60;50.90;;;;;;6245526;28;20050;-77
2021/05/12 13:44:20;;;;;;;4.38;3.15;;;21.60;50.90;;;;;;6243627;28;20029;-78
2021/05/12 13:47:21;;;;;;;6.00;3.53;;;21.60;50.80;;;;;;6245299;28;20539;-77
2021/05/12 13:50:30;;;;;;;6.20;3.72;;;21.60;50.90;;;;;;6244963;28;20038;-78
2021/05/12 13:53:37;;;;;;;6.75;3.40;;;21.60;50.80;;;;;;6244020;28;20029;-78
2021/05/12 13:57:01;;;;;;;6.40;3.42;;;21.60;50.80;;;;;;6245166;28;20064;-78
2021/05/12 14:03:22;;;;;;;7.75;3.30;;;21.60;50.80;;;;;;6244718;28;20600;-77
2021/05/12 14:06:33;;;;;;;5.68;3.20;;;21.60;50.70;;;;;;6242280;28;20041;-77
2021/05/12 14:09:39;;;;;;;7.88;2.60;;;21.60;50.70;;;;;;6244002;28;20030;-77
2021/05/12 14:12:44;;;;;;;8.32;3.38;;;21.60;50.70;;;;;;6229331;28;20087;-77
2021/05/12 14:19:04;;;;;;;6.03;3.05;;;21.60;50.60;;;;;;6247962;28;19905;-77
2021/05/12 14:22:06;;;;;;;4.93;3.00;;;21.60;50.70;;;;;;6248393;28;20502;-77
2021/05/12 14:25:07;;;;;;;7.53;2.90;;;21.60;50.60;;;;;;6247242;28;20060;-77
2021/05/12 14:28:09;;;;;;;5.63;2.67;;;21.60;50.70;;;;;;6247056;28;20108;-77
2021/05/12 14:31:09;;;;;;;4.82;3.00;;;21.60;50.60;;;;;;6246957;28;20094;-77
2021/05/12 14:34:10;;;;;;;6.43;2.65;;;21.50;50.50;;;;;;6248036;28;20021;-77
2021/05/12 14:37:15;;;;;;;5.38;2.88;;;21.50;50.50;;;;;;6247071;28;20091;-77
2021/05/12 14:40:15;;;;;;;3.55;2.60;;;21.50;50.40;;;;;;6248449;28;20022;-77
2021/05/12 14:43:17;;;;;;;6.18;3.15;;;21.60;50.50;;;;;;6246434;28;20025;-77
2021/05/12 14:46:17;;;;;;;7.40;2.97;;;21.50;51.20;;;;;;6247036;28;20033;-77
2021/05/12 14:49:19;;;;;;;3.65;2.60;;;21.50;50.40;;;;;;6248400;28;20492;-77
2021/05/12 14:59:09;;;;;;;5.70;3.25;;;21.50;50.40;;;;;;6248368;28;20037;-77
2021/05/12 15:02:47;;;;;;;6.38;2.95;;;21.50;50.40;;;;;;6248286;28;20022;-77
2021/05/12 15:08:55;;;;;;;6.90;3.15;;;21.50;50.40;;;;;;6241765;28;20037;-78
2021/05/12 15:11:56;;;;;;;6.75;2.70;;;21.50;50.40;;;;;;6248210;28;20045;-78
2021/05/12 15:14:58;;;;;;;4.18;2.70;;;21.50;50.40;;;;;;6248026;28;20018;-77
2021/05/12 15:17:59;;;;;;;5.90;3.33;;;21.50;50.40;;;;;;6248094;28;20496;-78
2021/05/12 15:21:00;;;;;;;4.80;2.70;;;21.50;50.40;;;;;;6247125;28;20060;-77
2021/05/12 15:24:00;;;;;;;5.53;3.13;;;21.60;50.50;;;;;;6247059;28;20480;-77
2021/05/12 15:27:01;;;;;;;5.78;3.10;;;21.50;50.40;;;;;;6247571;28;20022;-78
2021/05/12 15:30:02;;;;;;;5.53;3.08;;;21.50;50.40;;;;;;6247595;28;20041;-78
2021/05/12 15:33:03;;;;;;;19.70;3.22;;;21.50;50.40;;;;;;6247317;28;20531;-77
2021/05/12 15:36:04;;;;;;;5.80;3.10;;;21.50;50.40;;;;;;6237961;28;20077;-78
2021/05/12 15:39:05;;;;;;;7.00;3.53;;;21.60;50.50;;;;;;6246868;28;20026;-78
2021/05/12 15:42:05;;;;;;;6.10;3.08;;;21.50;50.40;;;;;;6247345;28;20544;-79
2021/05/12 15:45:07;;;;;;;6.40;3.35;;;21.50;50.40;;;;;;6243869;28;20453;-78
2021/05/12 15:48:10;;;;;;;6.40;3.20;;;21.50;50.40;;;;;;6245982;28;20044;-77
2021/05/12 15:51:11;;;;;;;6.25;3.20;;;21.50;50.40;;;;;;6246671;28;20061;-78
2021/05/12 15:54:12;;;;;;;6.20;3.28;;;21.50;50.40;;;;;;6246599;28;20028;-78
2021/05/12 15:57:13;;;;;;;6.55;3.30;;;21.50;50.40;;;;;;6244945;28;20040;-78
2021/05/12 16:00:14;;;;;;;7.13;3.50;;;21.50;50.40;;;;;;6247359;28;20045;-78
2021/05/12 16:03:14;;;;;;;6.57;3.30;;;21.50;50.40;;;;;;6246270;28;20105;-78
2021/05/12 16:06:15;;;;;;;6.75;3.63;;;21.50;50.40;;;;;;6247075;28;20022;-78
2021/05/12 16:09:17;;;;;;;6.78;3.83;;;21.50;50.40;;;;;;6245888;28;20110;-80
2021/05/12 16:12:17;;;;;;;6.75;3.42;;;21.50;50.40;;;;;;6246522;28;20033;-78
2021/05/12 16:15:19;;;;;;;5.18;3.00;;;21.50;50.40;;;;;;6243019;28;20056;-78